createdAt,value
2022-08-19T00:02:11.699Z,99889.97
2022-08-19T00:05:15.402Z,99886.81
2022-08-19T00:08:18.954Z,99884.75
2022-08-19T00:11:25.777Z,99876.38
2022-08-19T00:14:30.173Z,99873.22
2022-08-19T00:17:31.657Z,99872.28
2022-08-19T00:20:33.123Z,99864.13
2022-08-19T00:23:35.821Z,99855.34
2022-08-19T00:26:38.053Z,99851.06
2022-08-19T00:29:39.506Z,99838.06
2022-08-19T00:32:41.219Z,99825.25
2022-08-19T00:35:42.871Z,99820.63
2022-08-19T00:38:44.855Z,99822.16
2022-08-19T00:41:48.440Z,99824.34
2022-08-19T00:44:51.412Z,99813.38
2022-08-19T00:47:53.303Z,99818.59
2022-08-19T00:50:56.427Z,99814.69
2022-08-19T00:53:59.618Z,99818.69
2022-08-19T00:57:04.423Z,99832.28
2022-08-19T01:00:14.345Z,99835.88
2022-08-19T01:03:19.661Z,99833.13
2022-08-19T01:06:21.582Z,99838.41
2022-08-19T01:09:23.110Z,99846.38
2022-08-19T01:12:24.770Z,99850.91
2022-08-19T01:15:33.289Z,99852.06
2022-08-19T01:18:39.776Z,99831.47
2022-08-19T01:21:56.502Z,99832.19
2022-08-19T01:24:58.180Z,99831.34
2022-08-19T01:28:06.419Z,99826.59
2022-08-19T01:31:27.238Z,99837.34
2022-08-19T01:34:29.271Z,99838.50
2022-08-19T01:37:42.056Z,99844.19
2022-08-19T01:40:43.635Z,99834.28
2022-08-19T01:44:03.165Z,99842.75
2022-08-19T01:47:08.985Z,99849.28
2022-08-19T01:50:11.936Z,99858.84
2022-08-19T01:53:13.410Z,99853.38
2022-08-19T01:56:15.379Z,99842.63
2022-08-19T01:59:21.393Z,99850.84
2022-08-19T02:02:22.804Z,99847.25
2022-08-19T02:05:24.677Z,99851.84
2022-08-19T02:08:28.128Z,99851.50
2022-08-19T02:11:34.291Z,99843.22
2022-08-19T02:14:37.145Z,99856.97
2022-08-19T02:17:40.095Z,99869.53
2022-08-19T02:20:43.661Z,99850.91
2022-08-19T02:23:46.239Z,99845.06
2022-08-19T02:26:47.727Z,99841.03
2022-08-19T02:29:50.551Z,99846.75
2022-08-19T02:32:52.765Z,99843.75
2022-08-19T02:35:54.202Z,99842.72
2022-08-19T02:38:55.949Z,99851.06
2022-08-19T02:42:00.641Z,99848.88
2022-08-19T02:45:02.097Z,99862.69
2022-08-19T02:48:05.744Z,99856.63
2022-08-19T02:51:28.771Z,99847.44
2022-08-19T02:54:30.298Z,99848.88
2022-08-19T02:57:32.717Z,99847.47
2022-08-19T03:00:34.239Z,99855.88
2022-08-19T03:03:41.077Z,99853.13
2022-08-19T03:06:46.199Z,99858.97
2022-08-19T03:09:47.647Z,99849.94
2022-08-19T03:13:07.221Z,99854.75
2022-08-19T03:16:08.614Z,99851.97
2022-08-19T03:19:10.166Z,99851.16
2022-08-19T03:22:11.736Z,99844.34
2022-08-19T03:25:13.366Z,99838.66
2022-08-19T03:28:15.833Z,99839.28
2022-08-19T03:31:43.517Z,99840.50
2022-08-19T03:34:41.719Z,99846.88
2022-08-19T03:37:43.190Z,99858.69
2022-08-19T03:40:44.719Z,99852.69
2022-08-19T03:43:50.610Z,99845.69
2022-08-19T03:46:59.629Z,99850.47
2022-08-19T03:50:01.207Z,99851.94
2022-08-19T03:53:02.697Z,99857.13
2022-08-19T03:56:04.319Z,99870.66
2022-08-19T03:59:10.216Z,99878.56
2022-08-19T04:02:13.024Z,99881.88
2022-08-19T04:05:15.842Z,99884.72
2022-08-19T04:08:21.007Z,99886.16
2022-08-19T04:11:43.842Z,99882.81
2022-08-19T04:14:46.598Z,99877.13
2022-08-19T04:17:47.992Z,99873.78
2022-08-19T04:20:50.646Z,99880.75
2022-08-19T04:23:52.488Z,99884.75
2022-08-19T04:26:57.423Z,99880.16
2022-08-19T04:29:58.857Z,99882.53
2022-08-19T04:33:00.287Z,99876.66
2022-08-19T04:36:01.745Z,99879.88
2022-08-19T04:39:09.438Z,99877.03
2022-08-19T04:42:30.589Z,99884.66
2022-08-19T04:45:39.552Z,99880.63
2022-08-19T04:48:49.473Z,99884.75
2022-08-19T04:51:54.877Z,99876.97
2022-08-19T04:54:56.393Z,99876.72
2022-08-19T04:57:57.799Z,99868.94
2022-08-19T05:01:01.007Z,99868.34
2022-08-19T05:04:05.722Z,99879.00
2022-08-19T05:07:09.224Z,99878.59
2022-08-19T05:10:11.215Z,99878.06
2022-08-19T05:13:12.757Z,99878.16
2022-08-19T05:16:16.135Z,99877.03
2022-08-19T05:19:36.247Z,99881.28
2022-08-19T05:22:38.210Z,99885.75
2022-08-19T05:25:41.106Z,99890.09
2022-08-19T05:28:43.135Z,99906.25
2022-08-19T05:31:45.843Z,99904.53
2022-08-19T05:34:47.363Z,99887.44
2022-08-19T05:37:48.856Z,99888.72
2022-08-19T05:40:56.431Z,99893.53
2022-08-19T05:43:59.237Z,99900.91
2022-08-19T05:47:03.068Z,99912.31
2022-08-19T05:50:05.336Z,99917.16
2022-08-19T05:53:07.126Z,99920.94
2022-08-19T05:56:11.722Z,99924.59
2022-08-19T05:59:13.224Z,99927.13
2022-08-19T06:02:15.331Z,99933.13
2022-08-19T06:05:16.875Z,99946.84
2022-08-19T06:08:19.273Z,99949.91
2022-08-19T06:11:36.485Z,99960.59
2022-08-19T06:14:41.881Z,99948.59
2022-08-19T06:17:45.391Z,99956.94
2022-08-19T06:20:55.982Z,99970.16
2022-08-19T06:23:58.400Z,99966.91
2022-08-19T06:27:01.646Z,99976.81
2022-08-19T06:30:05.447Z,99977.25
2022-08-19T06:33:06.885Z,99963.75
2022-08-19T06:36:09.411Z,99976.97
2022-08-19T06:39:14.814Z,99988.84
2022-08-19T06:42:19.403Z,99989.13
2022-08-19T06:45:25.144Z,99991.50
2022-08-19T06:48:44.991Z,99995.31
2022-08-19T06:51:48.658Z,99989.25
2022-08-19T06:54:56.493Z,100003.22
2022-08-19T06:57:58.392Z,100001.81
2022-08-19T07:01:07.100Z,100012.94
2022-08-19T07:04:12.081Z,100012.09
2022-08-19T07:07:20.000Z,100011.28
2022-08-19T07:10:22.641Z,100013.84
2022-08-19T07:13:27.548Z,99999.81
2022-08-19T07:16:30.114Z,99994.69
2022-08-19T07:19:32.665Z,99990.00
2022-08-19T07:22:35.471Z,99992.31
2022-08-19T07:25:38.302Z,99993.91
2022-08-19T07:28:40.314Z,99996.56
2022-08-19T07:31:53.690Z,100000.47
2022-08-19T07:34:57.113Z,100002.69
2022-08-19T07:38:00.151Z,100005.56
2022-08-19T07:41:02.125Z,100013.88
2022-08-19T07:44:06.269Z,100004.44
2022-08-19T07:47:07.923Z,100008.06
2022-08-19T07:50:29.689Z,100005.28
2022-08-19T07:53:36.702Z,100002.56
2022-08-19T07:56:41.065Z,100006.31
2022-08-19T07:59:42.610Z,100005.16
2022-08-19T08:02:44.131Z,99994.06
2022-08-19T08:06:04.998Z,100005.16
2022-08-19T08:09:13.365Z,100008.88
2022-08-19T08:12:35.180Z,100003.84
2022-08-19T08:15:42.560Z,100004.28
2022-08-19T08:18:50.654Z,100001.84
2022-08-19T08:21:58.405Z,99995.41
2022-08-19T08:25:05.024Z,99993.41
2022-08-19T08:28:11.362Z,99984.53
2022-08-19T08:31:22.492Z,99989.44
2022-08-19T08:34:24.143Z,99997.06
2022-08-19T08:37:25.611Z,99998.97
2022-08-19T08:41:07.229Z,100000.81
2022-08-19T08:44:20.132Z,99994.50
2022-08-19T08:47:25.796Z,99997.78
2022-08-19T08:50:39.113Z,99995.44
2022-08-19T08:53:43.270Z,100000.91
2022-08-19T08:56:48.781Z,100010.09
2022-08-19T08:59:56.971Z,100016.47
2022-08-19T09:03:02.699Z,100020.94
2022-08-19T09:06:32.100Z,100011.16
2022-08-19T09:09:40.484Z,100018.09
2022-08-19T09:12:46.650Z,100018.81
2022-08-19T09:15:55.991Z,100023.63
2022-08-19T09:19:03.611Z,100018.44
2022-08-19T09:22:08.595Z,100015.88
2022-08-19T09:25:14.519Z,100016.25
2022-08-19T09:28:27.032Z,100002.78
2022-08-19T09:31:31.043Z,99997.94
2022-08-19T09:34:37.761Z,99988.31
2022-08-19T09:37:40.409Z,99995.09
2022-08-19T09:40:42.009Z,99987.16
2022-08-19T09:43:48.019Z,99992.44
2022-08-19T09:46:50.175Z,99999.25
2022-08-19T09:49:51.689Z,99996.16
2022-08-19T09:52:57.772Z,99992.28
2022-08-19T09:55:59.342Z,99989.09
2022-08-19T09:59:02.629Z,99997.03
2022-08-19T10:02:10.821Z,100001.63
2022-08-19T10:05:31.396Z,99995.94
2022-08-19T10:08:37.379Z,99991.38
2022-08-19T10:11:49.862Z,99997.69
2022-08-19T10:14:55.454Z,99997.81
2022-08-19T10:17:57.039Z,99993.28
2022-08-19T10:21:12.555Z,99995.03
2022-08-19T10:24:14.125Z,99994.63
2022-08-19T10:27:16.571Z,99984.50
2022-08-19T10:30:18.901Z,99995.16
2022-08-19T10:33:38.949Z,99981.50
2022-08-19T10:36:56.508Z,99988.72
2022-08-19T10:40:03.199Z,99979.56
2022-08-19T10:43:04.849Z,99993.44
2022-08-19T10:46:13.713Z,99984.06
2022-08-19T10:49:15.941Z,99979.03
2022-08-19T10:52:38.939Z,99969.69
2022-08-19T10:55:59.363Z,99982.22
2022-08-19T10:59:00.999Z,99972.41
2022-08-19T11:02:05.314Z,99975.66
2022-08-19T11:05:12.726Z,99963.50
2022-08-19T11:08:23.061Z,99968.41
2022-08-19T11:11:25.582Z,99960.56
2022-08-19T11:14:27.116Z,99960.00
2022-08-19T11:17:33.955Z,99951.69
2022-08-19T11:20:35.582Z,99944.66
2022-08-19T11:23:37.144Z,99947.34
2022-08-19T11:26:40.013Z,99930.81
2022-08-19T11:29:41.682Z,99934.19
2022-08-19T11:32:47.260Z,99923.59
2022-08-19T11:35:50.800Z,99940.31
2022-08-19T11:38:52.924Z,99934.94
2022-08-19T11:41:54.409Z,99935.75
2022-08-19T11:44:55.929Z,99929.75
2022-08-19T11:47:58.077Z,99929.31
2022-08-19T11:51:00.146Z,99930.91
2022-08-19T11:54:02.372Z,99936.41
2022-08-19T11:57:04.915Z,99934.25
2022-08-19T12:00:08.118Z,99933.38
2022-08-19T12:06:29.633Z,99932.22
2022-08-19T12:09:32.697Z,99925.53
2022-08-19T12:12:34.401Z,99931.00
2022-08-19T12:15:41.678Z,99928.84
2022-08-19T12:18:47.384Z,99931.91
2022-08-19T12:21:48.996Z,99923.06
2022-08-19T12:24:53.150Z,99916.09
2022-08-19T12:27:57.649Z,99929.28
2022-08-19T12:30:59.386Z,99926.50
2022-08-19T12:34:01.481Z,99934.72
2022-08-19T12:37:05.886Z,99938.06
2022-08-19T12:40:08.173Z,99941.78
2022-08-19T12:43:09.798Z,99932.81
2022-08-19T12:46:12.439Z,99930.84
2022-08-19T12:49:30.422Z,99939.56
2022-08-19T12:52:38.121Z,99926.75
2022-08-19T12:55:39.686Z,99934.91
2022-08-19T12:58:42.650Z,99926.16
2022-08-19T13:01:50.692Z,99938.66
2022-08-19T13:04:52.256Z,99934.78
2022-08-19T13:07:57.079Z,99936.34
2022-08-19T13:10:59.204Z,99938.91
2022-08-19T13:14:02.885Z,99942.91
2022-08-19T13:17:04.580Z,99937.00
2022-08-19T13:20:09.368Z,99932.66
2022-08-19T13:23:11.126Z,99940.03
2022-08-19T13:26:13.822Z,99947.16
2022-08-19T13:29:34.012Z,99940.69
2022-08-19T13:32:53.862Z,99937.94
2022-08-19T13:36:01.293Z,99935.91
2022-08-19T13:39:04.267Z,99937.94
2022-08-19T13:42:07.082Z,99942.38
2022-08-19T13:45:09.905Z,99938.25
2022-08-19T13:48:11.606Z,99932.22
2022-08-19T13:51:13.019Z,99935.59
2022-08-19T13:54:14.560Z,99925.47
2022-08-19T13:57:16.033Z,99916.47
2022-08-19T14:00:19.187Z,99927.31
2022-08-19T14:03:20.629Z,99926.84
2022-08-19T14:06:23.252Z,99919.84
2022-08-19T14:09:24.780Z,99914.56
2022-08-19T14:12:28.416Z,99908.06
2022-08-19T14:15:31.243Z,99896.72
2022-08-19T14:18:32.709Z,99885.22
2022-08-19T14:21:36.556Z,99886.00
2022-08-19T14:24:41.288Z,99888.84
2022-08-19T14:27:49.734Z,99879.47
2022-08-19T14:30:51.256Z,99880.19
2022-08-19T14:33:58.052Z,99889.75
2022-08-19T14:36:59.584Z,99889.94
2022-08-19T14:40:04.861Z,99883.84
2022-08-19T14:43:06.471Z,99880.50
2022-08-19T14:46:08.907Z,99877.69
2022-08-19T14:49:12.151Z,99883.91
2022-08-19T14:52:13.695Z,99876.63
2022-08-19T14:55:17.557Z,99870.41
2022-08-19T14:58:29.823Z,99880.34
2022-08-19T15:01:32.095Z,99874.38
2022-08-19T15:04:33.913Z,99875.91
2022-08-19T15:07:36.807Z,99866.78
2022-08-19T15:10:41.447Z,99858.56
2022-08-19T15:13:44.982Z,99866.84
2022-08-19T15:16:46.411Z,99869.31
2022-08-19T15:19:47.948Z,99873.88
2022-08-19T15:22:50.097Z,99874.03
2022-08-19T15:25:55.789Z,99872.16
2022-08-19T15:28:58.446Z,99874.72
2022-08-19T15:31:59.881Z,99887.97
2022-08-19T15:35:04.616Z,99878.16
2022-08-19T15:38:06.512Z,99874.56
2022-08-19T15:41:37.095Z,99872.91
2022-08-19T15:44:39.092Z,99882.78
2022-08-19T15:47:41.340Z,99874.53
2022-08-19T15:50:44.140Z,99873.53
2022-08-19T15:53:45.971Z,99873.59
2022-08-19T15:57:07.613Z,99880.50
2022-08-19T16:00:28.191Z,99880.56
2022-08-19T16:03:48.093Z,99871.44
2022-08-19T16:06:57.053Z,99876.84
2022-08-19T16:09:58.507Z,99882.31
2022-08-19T16:13:20.233Z,99875.72
2022-08-19T16:16:24.034Z,99875.66
2022-08-19T16:19:33.300Z,99877.44
2022-08-19T16:22:34.999Z,99878.31
2022-08-19T16:25:36.515Z,99878.09
2022-08-19T16:28:38.331Z,99879.88
2022-08-19T16:31:42.131Z,99882.59
2022-08-19T16:34:43.655Z,99879.88
2022-08-19T16:37:45.597Z,99884.31
2022-08-19T16:40:53.870Z,99881.59
2022-08-19T16:43:55.761Z,99883.41
2022-08-19T16:46:59.640Z,99884.59
2022-08-19T16:50:01.625Z,99892.16
2022-08-19T16:53:03.751Z,99894.13
2022-08-19T16:56:05.500Z,99898.53
2022-08-19T16:59:06.973Z,99892.31
2022-08-19T17:02:08.492Z,99902.81
2022-08-19T17:05:11.945Z,99904.47
2022-08-19T17:08:16.826Z,99905.13
2022-08-19T17:11:19.811Z,99899.56
2022-08-19T17:14:21.940Z,99893.25
2022-08-19T17:17:28.321Z,99895.00
2022-08-19T17:20:31.637Z,99896.72
2022-08-19T17:23:43.168Z,99895.72
2022-08-19T17:26:45.756Z,99901.09
2022-08-19T17:29:47.348Z,99898.31
2022-08-19T17:32:49.022Z,99894.78
2022-08-19T17:35:50.630Z,99903.81
2022-08-19T17:38:55.178Z,99902.00
2022-08-19T17:41:57.030Z,99908.28
2022-08-19T17:45:05.287Z,99912.84
2022-08-19T17:48:07.277Z,99908.31
2022-08-19T17:51:24.515Z,99909.25
2022-08-19T17:54:31.845Z,99914.53
2022-08-19T17:57:35.488Z,99906.44
2022-08-19T18:00:37.044Z,99912.66
2022-08-19T18:03:54.180Z,99919.63
2022-08-19T18:06:56.639Z,99911.47
2022-08-19T18:09:58.748Z,99907.91
2022-08-19T18:13:17.096Z,99922.09
2022-08-19T18:16:20.779Z,99924.81
2022-08-19T18:19:24.135Z,99927.31
2022-08-19T18:22:36.263Z,99924.41
2022-08-19T18:25:41.953Z,99934.06
2022-08-19T18:28:49.936Z,99939.41
2022-08-19T18:31:51.633Z,99935.75
2022-08-19T18:34:55.290Z,99937.31
2022-08-19T18:37:59.699Z,99943.28
2022-08-19T18:41:20.892Z,99948.56
2022-08-19T18:44:41.083Z,99940.00
2022-08-19T18:48:27.240Z,99945.13
2022-08-19T18:51:30.195Z,99957.66
2022-08-19T18:54:31.830Z,99961.97
2022-08-19T18:57:33.527Z,99954.50
2022-08-19T19:00:37.445Z,99958.78
2022-08-19T19:03:49.920Z,99968.47
2022-08-19T19:06:51.845Z,99969.03
2022-08-19T19:09:53.338Z,99975.34
2022-08-19T19:12:54.863Z,99974.16
2022-08-19T19:15:56.891Z,99985.81
2022-08-19T19:18:59.070Z,99995.25
2022-08-19T19:22:03.161Z,99997.31
2022-08-19T19:25:05.205Z,99992.34
2022-08-19T19:28:09.932Z,99997.19
2022-08-19T19:31:20.121Z,99999.09
2022-08-19T19:34:29.814Z,100008.78
2022-08-19T19:37:31.590Z,100010.47
2022-08-19T19:40:33.036Z,100018.19
2022-08-19T19:43:40.938Z,100019.97
2022-08-19T19:46:43.384Z,100025.13
2022-08-19T19:50:10.774Z,100019.56
2022-08-19T19:53:07.411Z,100028.88
2022-08-19T19:56:10.104Z,100037.00
2022-08-19T19:59:12.022Z,100039.69
2022-08-19T20:02:16.669Z,100049.59
2022-08-19T20:05:23.370Z,100050.94
2022-08-19T20:08:47.627Z,100056.00
2022-08-19T20:11:54.884Z,100056.50
2022-08-19T20:14:56.333Z,100060.66
2022-08-19T20:17:59.364Z,100060.72
2022-08-19T20:21:00.837Z,100072.44
2022-08-19T20:24:09.019Z,100077.22
2022-08-19T20:27:11.442Z,100079.91
2022-08-19T20:30:19.491Z,100082.09
2022-08-19T20:33:21.293Z,100086.47
2022-08-19T20:36:24.501Z,100086.56
2022-08-19T20:39:26.034Z,100093.66
2022-08-19T20:42:28.328Z,100088.16
2022-08-19T20:45:33.075Z,100097.81
2022-08-19T20:48:38.286Z,100094.00
2022-08-19T20:51:40.098Z,100097.47
2022-08-19T20:54:41.647Z,100100.38
2022-08-19T20:57:43.115Z,100100.25
2022-08-19T21:00:45.999Z,100102.69
2022-08-19T21:03:48.396Z,100106.56
2022-08-19T21:06:50.676Z,100113.97
2022-08-19T21:09:52.475Z,100111.97
2022-08-19T21:12:54.816Z,100111.06
2022-08-19T21:15:56.318Z,100108.66
2022-08-19T21:18:57.925Z,100107.75
2022-08-19T21:22:00.724Z,100113.03
2022-08-19T21:25:03.251Z,100113.03
2022-08-19T21:28:05.768Z,100108.50
2022-08-19T21:31:10.279Z,100115.66
2022-08-19T21:34:11.924Z,100107.34
2022-08-19T21:37:17.587Z,100110.91
2022-08-19T21:40:27.246Z,100110.06
2022-08-19T21:43:28.741Z,100116.22
2022-08-19T21:46:30.296Z,100118.56
2022-08-19T21:49:31.958Z,100114.03
2022-08-19T21:52:37.438Z,100109.38
2022-08-19T21:55:39.329Z,100103.00
2022-08-19T21:58:41.362Z,100113.56
2022-08-19T22:01:48.231Z,100115.59
2022-08-19T22:04:52.991Z,100121.06
2022-08-19T22:07:59.772Z,100119.00
2022-08-19T22:11:03.528Z,100111.91
2022-08-19T22:14:05.598Z,100110.63
2022-08-19T22:17:09.345Z,100118.22
2022-08-19T22:20:15.683Z,100108.09
2022-08-19T22:23:17.181Z,100106.97
2022-08-19T22:26:18.773Z,100115.19
2022-08-19T22:29:20.265Z,100121.13
2022-08-19T22:32:35.946Z,100121.25
2022-08-19T22:35:39.981Z,100114.06
2022-08-19T22:38:41.744Z,100126.22
2022-08-19T22:41:43.221Z,100136.59
2022-08-19T22:44:44.663Z,100133.09
2022-08-19T22:47:46.172Z,100134.78
2022-08-19T22:51:07.750Z,100147.59
2022-08-19T22:54:09.539Z,100139.88
2022-08-19T22:57:11.348Z,100155.63
2022-08-19T23:00:13.647Z,100147.09
2022-08-19T23:03:15.181Z,100141.19
2022-08-19T23:06:17.382Z,100141.06
2022-08-19T23:09:19.703Z,100141.91
2022-08-19T23:12:34.406Z,100144.91
2022-08-19T23:15:36.259Z,100145.41
2022-08-19T23:18:37.863Z,100139.00
2022-08-19T23:21:41.270Z,100136.28
2022-08-19T23:24:42.674Z,100139.47
2022-08-19T23:28:04.392Z,100141.31
2022-08-19T23:31:07.218Z,100140.31
2022-08-19T23:34:08.696Z,100137.72
2022-08-19T23:37:10.156Z,100134.13
2022-08-19T23:40:11.723Z,100135.06
2022-08-19T23:43:20.388Z,100149.53
2022-08-19T23:46:28.119Z,100151.94
2022-08-19T23:49:31.254Z,100139.19
2022-08-19T23:52:35.244Z,100143.41
2022-08-19T23:55:41.033Z,100136.66
2022-08-19T23:58:42.482Z,100132.31
